sensor_id;sensor_type;location;lat;lon;timestamp;P1;durP1;ratioP1;P2;durP2;ratioP2
70558;SDS011;58108;48.094;11.838;2023-03-13T00:00:08;2.03;;;0.33;;
70558;SDS011;58108;48.094;11.838;2023-03-13T00:02:34;3.70;;;0.40;;
70558;SDS011;58108;48.094;11.838;2023-03-13T00:04:59;2.53;;;0.30;;
70558;SDS011;58108;48.094;11.838;2023-03-13T00:07:24;2.43;;;0.30;;
70558;SDS011;58108;48.094;11.838;2023-03-13T00:09:49;1.70;;;0.30;;
70558;SDS011;58108;48.094;11.838;2023-03-13T00:12:15;4.73;;;0.50;;
70558;SDS011;58108;48.094;11.838;2023-03-13T00:14:40;2.70;;;0.43;;
70558;SDS011;58108;48.094;11.838;2023-03-13T00:17:05;2.77;;;0.40;;
70558;SDS011;58108;48.094;11.838;2023-03-13T00:19:30;3.10;;;0.60;;
70558;SDS011;58108;48.094;11.838;2023-03-13T00:21:55;4.50;;;0.50;;
70558;SDS011;58108;48.094;11.838;2023-03-13T00:24:21;4.17;;;0.50;;
70558;SDS011;58108;48.094;11.838;2023-03-13T00:26:46;2.60;;;0.50;;
70558;SDS011;58108;48.094;11.838;2023-03-13T00:29:11;3.03;;;0.47;;
70558;SDS011;58108;48.094;11.838;2023-03-13T00:31:36;3.03;;;0.45;;
70558;SDS011;58108;48.094;11.838;2023-03-13T00:34:02;3.33;;;0.60;;
70558;SDS011;58108;48.094;11.838;2023-03-13T00:36:28;3.55;;;0.50;;
70558;SDS011;58108;48.094;11.838;2023-03-13T00:38:54;2.63;;;0.60;;
70558;SDS011;58108;48.094;11.838;2023-03-13T00:41:20;2.83;;;0.50;;
70558;SDS011;58108;48.094;11.838;2023-03-13T00:43:46;2.40;;;0.63;;
70558;SDS011;58108;48.094;11.838;2023-03-13T00:46:13;1.75;;;0.40;;
70558;SDS011;58108;48.094;11.838;2023-03-13T00:48:38;2.42;;;0.40;;
70558;SDS011;58108;48.094;11.838;2023-03-13T00:51:04;3.10;;;0.63;;
70558;SDS011;58108;48.094;11.838;2023-03-13T00:53:29;2.47;;;0.57;;
70558;SDS011;58108;48.094;11.838;2023-03-13T00:55:56;3.07;;;0.50;;
70558;SDS011;58108;48.094;11.838;2023-03-13T00:58:21;2.80;;;0.70;;
70558;SDS011;58108;48.094;11.838;2023-03-13T01:00:47;3.40;;;0.40;;
70558;SDS011;58108;48.094;11.838;2023-03-13T01:03:12;3.70;;;0.60;;
70558;SDS011;58108;48.094;11.838;2023-03-13T01:05:38;4.63;;;0.70;;
70558;SDS011;58108;48.094;11.838;2023-03-13T01:08:03;2.83;;;0.50;;
70558;SDS011;58108;48.094;11.838;2023-03-13T01:10:28;3.57;;;0.50;;
70558;SDS011;58108;48.094;11.838;2023-03-13T01:12:54;2.33;;;0.50;;
70558;SDS011;58108;48.094;11.838;2023-03-13T01:15:19;2.83;;;0.90;;
70558;SDS011;58108;48.094;11.838;2023-03-13T01:17:44;2.43;;;0.50;;
70558;SDS011;58108;48.094;11.838;2023-03-13T01:20:10;3.05;;;0.70;;
70558;SDS011;58108;48.094;11.838;2023-03-13T01:22:35;2.50;;;0.50;;
70558;SDS011;58108;48.094;11.838;2023-03-13T01:25:00;2.57;;;0.67;;
70558;SDS011;58108;48.094;11.838;2023-03-13T01:27:26;3.63;;;0.80;;
70558;SDS011;58108;48.094;11.838;2023-03-13T01:29:51;2.67;;;0.60;;
70558;SDS011;58108;48.094;11.838;2023-03-13T01:32:16;4.47;;;0.60;;
70558;SDS011;58108;48.094;11.838;2023-03-13T01:34:41;3.13;;;0.80;;
70558;SDS011;58108;48.094;11.838;2023-03-13T01:37:06;3.07;;;0.97;;
70558;SDS011;58108;48.094;11.838;2023-03-13T01:39:31;3.00;;;0.80;;
70558;SDS011;58108;48.094;11.838;2023-03-13T01:41:57;3.13;;;0.90;;
70558;SDS011;58108;48.094;11.838;2023-03-13T01:44:23;2.50;;;0.70;;
70558;SDS011;58108;48.094;11.838;2023-03-13T01:46:49;3.35;;;0.80;;
70558;SDS011;58108;48.094;11.838;2023-03-13T01:51:46;3.30;;;0.70;;
70558;SDS011;58108;48.094;11.838;2023-03-13T01:59:11;2.40;;;0.70;;
70558;SDS011;58108;48.094;11.838;2023-03-13T02:01:38;5.22;;;1.00;;
70558;SDS011;58108;48.094;11.838;2023-03-13T02:04:04;3.25;;;0.82;;
70558;SDS011;58108;48.094;11.838;2023-03-13T02:06:30;3.87;;;0.80;;
70558;SDS011;58108;48.094;11.838;2023-03-13T02:08:58;2.70;;;0.70;;
70558;SDS011;58108;48.094;11.838;2023-03-13T02:13:53;3.30;;;0.70;;
70558;SDS011;58108;48.094;11.838;2023-03-13T02:16:20;3.13;;;0.80;;
70558;SDS011;58108;48.094;11.838;2023-03-13T02:18:45;3.00;;;0.80;;
70558;SDS011;58108;48.094;11.838;2023-03-13T02:23:57;3.20;;;0.70;;
70558;SDS011;58108;48.094;11.838;2023-03-13T02:26:25;3.00;;;0.65;;
70558;SDS011;58108;48.094;11.838;2023-03-13T02:28:50;3.03;;;0.60;;
70558;SDS011;58108;48.094;11.838;2023-03-13T02:31:15;3.13;;;0.90;;
70558;SDS011;58108;48.094;11.838;2023-03-13T02:33:41;2.93;;;0.80;;
70558;SDS011;58108;48.094;11.838;2023-03-13T02:36:07;4.80;;;0.90;;
70558;SDS011;58108;48.094;11.838;2023-03-13T02:38:34;3.22;;;1.00;;
70558;SDS011;58108;48.094;11.838;2023-03-13T02:40:59;3.00;;;0.90;;
70558;SDS011;58108;48.094;11.838;2023-03-13T02:43:30;4.18;;;0.90;;
70558;SDS011;58108;48.094;11.838;2023-03-13T02:46:15;3.25;;;0.75;;
70558;SDS011;58108;48.094;11.838;2023-03-13T02:48:51;3.25;;;0.93;;
70558;SDS011;58108;48.094;11.838;2023-03-13T02:53:55;2.72;;;0.80;;
70558;SDS011;58108;48.094;11.838;2023-03-13T02:56:22;3.75;;;1.35;;
70558;SDS011;58108;48.094;11.838;2023-03-13T02:58:48;5.38;;;0.68;;
70558;SDS011;58108;48.094;11.838;2023-03-13T03:01:13;3.20;;;1.00;;
70558;SDS011;58108;48.094;11.838;2023-03-13T03:03:38;2.80;;;0.90;;
70558;SDS011;58108;48.094;11.838;2023-03-13T03:06:04;3.27;;;0.70;;
70558;SDS011;58108;48.094;11.838;2023-03-13T03:08:29;2.75;;;0.80;;
70558;SDS011;58108;48.094;11.838;2023-03-13T03:10:55;2.30;;;0.60;;
70558;SDS011;58108;48.094;11.838;2023-03-13T03:13:20;2.93;;;0.73;;
70558;SDS011;58108;48.094;11.838;2023-03-13T03:15:45;3.93;;;0.70;;
70558;SDS011;58108;48.094;11.838;2023-03-13T03:18:10;1.80;;;0.40;;
70558;SDS011;58108;48.094;11.838;2023-03-13T03:20:35;4.63;;;0.67;;
70558;SDS011;58108;48.094;11.838;2023-03-13T03:23:01;3.03;;;0.50;;
70558;SDS011;58108;48.094;11.838;2023-03-13T03:25:26;3.03;;;0.77;;
70558;SDS011;58108;48.094;11.838;2023-03-13T03:27:51;1.97;;;0.23;;
70558;SDS011;58108;48.094;11.838;2023-03-13T03:30:17;2.63;;;0.57;;
70558;SDS011;58108;48.094;11.838;2023-03-13T03:32:42;2.60;;;0.50;;
70558;SDS011;58108;48.094;11.838;2023-03-13T03:35:08;2.70;;;0.60;;
70558;SDS011;58108;48.094;11.838;2023-03-13T03:37:33;2.05;;;0.40;;
70558;SDS011;58108;48.094;11.838;2023-03-13T03:39:58;1.77;;;0.30;;
70558;SDS011;58108;48.094;11.838;2023-03-13T03:42:23;2.97;;;0.33;;
70558;SDS011;58108;48.094;11.838;2023-03-13T03:44:48;2.07;;;0.30;;
70558;SDS011;58108;48.094;11.838;2023-03-13T03:47:14;1.70;;;0.20;;
70558;SDS011;58108;48.094;11.838;2023-03-13T03:49:39;2.90;;;0.50;;
70558;SDS011;58108;48.094;11.838;2023-03-13T03:52:04;2.50;;;0.20;;
70558;SDS011;58108;48.094;11.838;2023-03-13T03:54:29;1.80;;;0.30;;
70558;SDS011;58108;48.094;11.838;2023-03-13T03:56:55;1.53;;;0.20;;
70558;SDS011;58108;48.094;11.838;2023-03-13T03:59:20;2.07;;;0.27;;
70558;SDS011;58108;48.094;11.838;2023-03-13T04:01:45;2.10;;;0.20;;
70558;SDS011;58108;48.094;11.838;2023-03-13T04:04:11;1.43;;;0.10;;
70558;SDS011;58108;48.094;11.838;2023-03-13T04:06:36;1.67;;;0.20;;
70558;SDS011;58108;48.094;11.838;2023-03-13T04:09:01;2.40;;;0.23;;
70558;SDS011;58108;48.094;11.838;2023-03-13T04:11:26;2.00;;;0.30;;
70558;SDS011;58108;48.094;11.838;2023-03-13T04:13:51;1.40;;;0.30;;
70558;SDS011;58108;48.094;11.838;2023-03-13T04:16:17;1.70;;;0.20;;
70558;SDS011;58108;48.094;11.838;2023-03-13T04:18:42;2.80;;;0.43;;
70558;SDS011;58108;48.094;11.838;2023-03-13T04:21:07;1.90;;;0.30;;
70558;SDS011;58108;48.094;11.838;2023-03-13T04:23:32;2.77;;;0.40;;
70558;SDS011;58108;48.094;11.838;2023-03-13T04:25:57;2.00;;;0.40;;
70558;SDS011;58108;48.094;11.838;2023-03-13T04:28:23;2.83;;;0.20;;
70558;SDS011;58108;48.094;11.838;2023-03-13T04:30:48;1.20;;;0.10;;
70558;SDS011;58108;48.094;11.838;2023-03-13T04:33:13;1.50;;;0.10;;
70558;SDS011;58108;48.094;11.838;2023-03-13T04:35:38;1.20;;;0.10;;
70558;SDS011;58108;48.094;11.838;2023-03-13T04:38:03;1.37;;;0.10;;
70558;SDS011;58108;48.094;11.838;2023-03-13T04:40:29;2.10;;;0.20;;
70558;SDS011;58108;48.094;11.838;2023-03-13T04:42:54;1.40;;;0.10;;
70558;SDS011;58108;48.094;11.838;2023-03-13T04:45:19;1.70;;;0.20;;
70558;SDS011;58108;48.094;11.838;2023-03-13T04:47:47;2.93;;;0.30;;
70558;SDS011;58108;48.094;11.838;2023-03-13T04:50:12;2.40;;;0.13;;
70558;SDS011;58108;48.094;11.838;2023-03-13T04:52:37;1.88;;;0.30;;
70558;SDS011;58108;48.094;11.838;2023-03-13T04:55:03;2.23;;;0.20;;
70558;SDS011;58108;48.094;11.838;2023-03-13T04:57:28;2.03;;;0.30;;
70558;SDS011;58108;48.094;11.838;2023-03-13T04:59:53;2.90;;;0.30;;
70558;SDS011;58108;48.094;11.838;2023-03-13T05:02:18;1.67;;;0.30;;
70558;SDS011;58108;48.094;11.838;2023-03-13T05:04:43;1.43;;;0.20;;
70558;SDS011;58108;48.094;11.838;2023-03-13T05:07:09;2.07;;;0.10;;
70558;SDS011;58108;48.094;11.838;2023-03-13T05:09:34;1.73;;;0.20;;
70558;SDS011;58108;48.094;11.838;2023-03-13T05:11:59;2.80;;;0.40;;
70558;SDS011;58108;48.094;11.838;2023-03-13T05:14:27;3.08;;;0.50;;
70558;SDS011;58108;48.094;11.838;2023-03-13T05:16:52;2.43;;;0.40;;
70558;SDS011;58108;48.094;11.838;2023-03-13T05:19:17;2.63;;;0.80;;
70558;SDS011;58108;48.094;11.838;2023-03-13T05:21:42;2.60;;;0.50;;
70558;SDS011;58108;48.094;11.838;2023-03-13T05:24:08;1.83;;;0.47;;
70558;SDS011;58108;48.094;11.838;2023-03-13T05:26:33;2.03;;;0.47;;
70558;SDS011;58108;48.094;11.838;2023-03-13T05:28:58;2.20;;;0.40;;
70558;SDS011;58108;48.094;11.838;2023-03-13T05:31:23;2.43;;;0.43;;
70558;SDS011;58108;48.094;11.838;2023-03-13T05:33:48;3.23;;;0.40;;
70558;SDS011;58108;48.094;11.838;2023-03-13T05:36:14;1.73;;;0.20;;
70558;SDS011;58108;48.094;11.838;2023-03-13T05:38:39;2.17;;;0.53;;
70558;SDS011;58108;48.094;11.838;2023-03-13T05:41:04;2.00;;;0.30;;
70558;SDS011;58108;48.094;11.838;2023-03-13T05:43:29;1.57;;;0.40;;
70558;SDS011;58108;48.094;11.838;2023-03-13T05:45:55;2.37;;;0.30;;
70558;SDS011;58108;48.094;11.838;2023-03-13T05:48:20;1.90;;;0.30;;
70558;SDS011;58108;48.094;11.838;2023-03-13T05:50:45;2.40;;;0.50;;
70558;SDS011;58108;48.094;11.838;2023-03-13T05:53:11;2.53;;;0.40;;
70558;SDS011;58108;48.094;11.838;2023-03-13T05:55:36;2.13;;;0.30;;
70558;SDS011;58108;48.094;11.838;2023-03-13T05:58:01;1.67;;;0.27;;
70558;SDS011;58108;48.094;11.838;2023-03-13T06:00:26;2.40;;;0.23;;
70558;SDS011;58108;48.094;11.838;2023-03-13T06:02:51;2.17;;;0.37;;
70558;SDS011;58108;48.094;11.838;2023-03-13T06:05:17;1.73;;;0.30;;
70558;SDS011;58108;48.094;11.838;2023-03-13T06:07:42;2.43;;;0.30;;
70558;SDS011;58108;48.094;11.838;2023-03-13T06:10:07;1.70;;;0.30;;
70558;SDS011;58108;48.094;11.838;2023-03-13T06:12:33;2.33;;;0.40;;
70558;SDS011;58108;48.094;11.838;2023-03-13T06:14:58;3.10;;;0.20;;
70558;SDS011;58108;48.094;11.838;2023-03-13T06:17:23;2.53;;;0.40;;
70558;SDS011;58108;48.094;11.838;2023-03-13T06:19:49;1.45;;;0.28;;
70558;SDS011;58108;48.094;11.838;2023-03-13T06:22:15;1.77;;;0.30;;
70558;SDS011;58108;48.094;11.838;2023-03-13T06:24:40;2.00;;;0.20;;
70558;SDS011;58108;48.094;11.838;2023-03-13T06:27:08;1.80;;;0.30;;
70558;SDS011;58108;48.094;11.838;2023-03-13T06:29:33;2.33;;;0.37;;
70558;SDS011;58108;48.094;11.838;2023-03-13T06:31:59;3.43;;;0.40;;
70558;SDS011;58108;48.094;11.838;2023-03-13T06:34:24;2.10;;;0.40;;
70558;SDS011;58108;48.094;11.838;2023-03-13T06:36:49;1.50;;;0.20;;
70558;SDS011;58108;48.094;11.838;2023-03-13T06:39:14;1.83;;;0.30;;
70558;SDS011;58108;48.094;11.838;2023-03-13T06:41:39;2.50;;;0.30;;
70558;SDS011;58108;48.094;11.838;2023-03-13T06:44:04;2.17;;;0.27;;
70558;SDS011;58108;48.094;11.838;2023-03-13T06:46:30;2.23;;;0.20;;
70558;SDS011;58108;48.094;11.838;2023-03-13T06:48:56;2.10;;;0.30;;
70558;SDS011;58108;48.094;11.838;2023-03-13T06:51:21;2.03;;;0.30;;
70558;SDS011;58108;48.094;11.838;2023-03-13T06:53:47;1.63;;;0.20;;
70558;SDS011;58108;48.094;11.838;2023-03-13T06:56:12;1.50;;;0.20;;
70558;SDS011;58108;48.094;11.838;2023-03-13T06:58:38;1.30;;;0.30;;
70558;SDS011;58108;48.094;11.838;2023-03-13T07:01:09;2.10;;;0.20;;
70558;SDS011;58108;48.094;11.838;2023-03-13T07:03:35;1.45;;;0.10;;
70558;SDS011;58108;48.094;11.838;2023-03-13T07:06:01;1.70;;;0.20;;
70558;SDS011;58108;48.094;11.838;2023-03-13T07:08:26;2.53;;;0.40;;
70558;SDS011;58108;48.094;11.838;2023-03-13T07:10:52;1.87;;;0.10;;
70558;SDS011;58108;48.094;11.838;2023-03-13T07:13:18;2.97;;;0.30;;
70558;SDS011;58108;48.094;11.838;2023-03-13T07:15:45;2.57;;;0.30;;
70558;SDS011;58108;48.094;11.838;2023-03-13T07:18:10;1.80;;;0.30;;
70558;SDS011;58108;48.094;11.838;2023-03-13T07:20:36;1.58;;;0.20;;
70558;SDS011;58108;48.094;11.838;2023-03-13T07:23:01;1.40;;;0.10;;
70558;SDS011;58108;48.094;11.838;2023-03-13T07:25:26;1.50;;;0.10;;
70558;SDS011;58108;48.094;11.838;2023-03-13T07:27:51;1.40;;;0.20;;
70558;SDS011;58108;48.094;11.838;2023-03-13T07:30:17;1.80;;;0.20;;
70558;SDS011;58108;48.094;11.838;2023-03-13T07:32:42;1.47;;;0.20;;
70558;SDS011;58108;48.094;11.838;2023-03-13T07:35:07;1.57;;;0.20;;
70558;SDS011;58108;48.094;11.838;2023-03-13T07:37:33;2.20;;;0.20;;
70558;SDS011;58108;48.094;11.838;2023-03-13T07:39:58;1.83;;;0.20;;
70558;SDS011;58108;48.094;11.838;2023-03-13T07:42:23;1.20;;;0.10;;
70558;SDS011;58108;48.094;11.838;2023-03-13T07:44:48;2.23;;;0.23;;
70558;SDS011;58108;48.094;11.838;2023-03-13T07:47:13;1.40;;;0.20;;
70558;SDS011;58108;48.094;11.838;2023-03-13T07:49:38;2.90;;;0.20;;
70558;SDS011;58108;48.094;11.838;2023-03-13T07:52:07;1.70;;;0.10;;
70558;SDS011;58108;48.094;11.838;2023-03-13T07:54:32;1.77;;;0.50;;
70558;SDS011;58108;48.094;11.838;2023-03-13T07:56:58;1.17;;;0.10;;
70558;SDS011;58108;48.094;11.838;2023-03-13T07:59:23;1.97;;;0.33;;
70558;SDS011;58108;48.094;11.838;2023-03-13T08:01:48;3.87;;;0.37;;
70558;SDS011;58108;48.094;11.838;2023-03-13T08:04:13;1.50;;;0.30;;
70558;SDS011;58108;48.094;11.838;2023-03-13T08:06:39;2.93;;;0.30;;
70558;SDS011;58108;48.094;11.838;2023-03-13T08:09:05;2.65;;;0.40;;
70558;SDS011;58108;48.094;11.838;2023-03-13T08:11:31;2.07;;;0.40;;
70558;SDS011;58108;48.094;11.838;2023-03-13T08:13:56;2.57;;;0.80;;
70558;SDS011;58108;48.094;11.838;2023-03-13T08:16:23;2.25;;;0.50;;
70558;SDS011;58108;48.094;11.838;2023-03-13T08:18:49;2.50;;;0.60;;
70558;SDS011;58108;48.094;11.838;2023-03-13T08:21:15;2.78;;;0.75;;
70558;SDS011;58108;48.094;11.838;2023-03-13T08:23:41;2.03;;;0.70;;
70558;SDS011;58108;48.094;11.838;2023-03-13T08:26:16;2.95;;;0.80;;
70558;SDS011;58108;48.094;11.838;2023-03-13T08:28:42;3.75;;;0.90;;
70558;SDS011;58108;48.094;11.838;2023-03-13T08:31:08;3.38;;;0.90;;
70558;SDS011;58108;48.094;11.838;2023-03-13T08:33:34;4.55;;;0.90;;
70558;SDS011;58108;48.094;11.838;2023-03-13T08:36:06;3.57;;;1.00;;
70558;SDS011;58108;48.094;11.838;2023-03-13T08:38:31;2.90;;;0.70;;
70558;SDS011;58108;48.094;11.838;2023-03-13T08:40:57;2.80;;;0.67;;
70558;SDS011;58108;48.094;11.838;2023-03-13T08:43:22;2.47;;;0.50;;
70558;SDS011;58108;48.094;11.838;2023-03-13T08:45:52;2.03;;;0.60;;
70558;SDS011;58108;48.094;11.838;2023-03-13T08:48:18;2.10;;;0.45;;
70558;SDS011;58108;48.094;11.838;2023-03-13T08:50:43;2.10;;;0.50;;
70558;SDS011;58108;48.094;11.838;2023-03-13T08:53:08;1.90;;;0.40;;
70558;SDS011;58108;48.094;11.838;2023-03-13T08:55:33;2.67;;;0.30;;
70558;SDS011;58108;48.094;11.838;2023-03-13T08:57:58;2.00;;;0.30;;
70558;SDS011;58108;48.094;11.838;2023-03-13T09:00:23;2.37;;;0.40;;
70558;SDS011;58108;48.094;11.838;2023-03-13T09:02:49;2.50;;;0.40;;
70558;SDS011;58108;48.094;11.838;2023-03-13T09:05:14;1.80;;;0.33;;
70558;SDS011;58108;48.094;11.838;2023-03-13T09:07:39;2.43;;;0.40;;
70558;SDS011;58108;48.094;11.838;2023-03-13T09:10:05;1.90;;;0.20;;
70558;SDS011;58108;48.094;11.838;2023-03-13T09:12:30;1.83;;;0.30;;
70558;SDS011;58108;48.094;11.838;2023-03-13T09:14:55;1.77;;;0.30;;
70558;SDS011;58108;48.094;11.838;2023-03-13T09:17:20;2.40;;;0.57;;
70558;SDS011;58108;48.094;11.838;2023-03-13T09:19:45;1.90;;;0.20;;
70558;SDS011;58108;48.094;11.838;2023-03-13T09:22:11;2.20;;;0.30;;
70558;SDS011;58108;48.094;11.838;2023-03-13T09:24:36;1.43;;;0.30;;
70558;SDS011;58108;48.094;11.838;2023-03-13T09:27:01;1.80;;;0.20;;
70558;SDS011;58108;48.094;11.838;2023-03-13T09:29:26;2.43;;;0.30;;
70558;SDS011;58108;48.094;11.838;2023-03-13T09:31:51;1.73;;;0.23;;
70558;SDS011;58108;48.094;11.838;2023-03-13T09:34:16;2.30;;;0.20;;
70558;SDS011;58108;48.094;11.838;2023-03-13T09:36:42;1.65;;;0.10;;
70558;SDS011;58108;48.094;11.838;2023-03-13T09:39:07;1.30;;;0.10;;
70558;SDS011;58108;48.094;11.838;2023-03-13T09:44:11;1.80;;;0.10;;
70558;SDS011;58108;48.094;11.838;2023-03-13T09:49:04;2.03;;;0.10;;
70558;SDS011;58108;48.094;11.838;2023-03-13T09:51:30;1.77;;;0.10;;
70558;SDS011;58108;48.094;11.838;2023-03-13T09:54:44;2.38;;;0.10;;
70558;SDS011;58108;48.094;11.838;2023-03-13T09:56:46;0.98;;;0.00;;
70558;SDS011;58108;48.094;11.838;2023-03-13T10:01:39;0.67;;;0.00;;
70558;SDS011;58108;48.094;11.838;2023-03-13T10:04:13;1.48;;;0.20;;
70558;SDS011;58108;48.094;11.838;2023-03-13T10:06:46;2.58;;;0.20;;
70558;SDS011;58108;48.094;11.838;2023-03-13T10:09:20;1.00;;;0.10;;
70558;SDS011;58108;48.094;11.838;2023-03-13T10:12:05;1.73;;;0.17;;
70558;SDS011;58108;48.094;11.838;2023-03-13T10:14:35;0.50;;;0.00;;
70558;SDS011;58108;48.094;11.838;2023-03-13T10:17:09;1.23;;;0.10;;
70558;SDS011;58108;48.094;11.838;2023-03-13T10:19:39;1.05;;;0.08;;
70558;SDS011;58108;48.094;11.838;2023-03-13T10:22:11;0.68;;;0.00;;
70558;SDS011;58108;48.094;11.838;2023-03-13T10:27:15;0.60;;;0.00;;
70558;SDS011;58108;48.094;11.838;2023-03-13T10:29:40;0.40;;;0.00;;
70558;SDS011;58108;48.094;11.838;2023-03-13T10:32:06;1.45;;;0.10;;
70558;SDS011;58108;48.094;11.838;2023-03-13T10:37:18;0.65;;;0.10;;
70558;SDS011;58108;48.094;11.838;2023-03-13T10:39:44;0.80;;;0.00;;
70558;SDS011;58108;48.094;11.838;2023-03-13T10:42:20;0.90;;;0.10;;
70558;SDS011;58108;48.094;11.838;2023-03-13T10:44:45;1.48;;;0.20;;
70558;SDS011;58108;48.094;11.838;2023-03-13T10:47:13;0.90;;;0.10;;
70558;SDS011;58108;48.094;11.838;2023-03-13T10:49:49;0.70;;;0.10;;
70558;SDS011;58108;48.094;11.838;2023-03-13T10:52:31;0.52;;;0.10;;
70558;SDS011;58108;48.094;11.838;2023-03-13T10:55:04;0.80;;;0.10;;
70558;SDS011;58108;48.094;11.838;2023-03-13T10:57:31;0.77;;;0.00;;
70558;SDS011;58108;48.094;11.838;2023-03-13T10:59:56;0.55;;;0.00;;
70558;SDS011;58108;48.094;11.838;2023-03-13T11:02:26;0.63;;;0.10;;
70558;SDS011;58108;48.094;11.838;2023-03-13T11:04:52;1.27;;;0.00;;
70558;SDS011;58108;48.094;11.838;2023-03-13T11:07:25;2.22;;;0.10;;
70558;SDS011;58108;48.094;11.838;2023-03-13T11:12:35;0.80;;;0.00;;
70558;SDS011;58108;48.094;11.838;2023-03-13T11:15:10;1.38;;;0.10;;
70558;SDS011;58108;48.094;11.838;2023-03-13T11:17:37;1.20;;;0.10;;
70558;SDS011;58108;48.094;11.838;2023-03-13T11:23:04;0.98;;;0.10;;
70558;SDS011;58108;48.094;11.838;2023-03-13T11:28:19;0.80;;;0.10;;
70558;SDS011;58108;48.094;11.838;2023-03-13T11:33:48;1.77;;;0.10;;
70558;SDS011;58108;48.094;11.838;2023-03-13T11:36:33;0.95;;;0.10;;
70558;SDS011;58108;48.094;11.838;2023-03-13T11:44:11;1.00;;;0.10;;
70558;SDS011;58108;48.094;11.838;2023-03-13T11:49:29;0.70;;;0.10;;
70558;SDS011;58108;48.094;11.838;2023-03-13T11:54:41;0.60;;;0.10;;
70558;SDS011;58108;48.094;11.838;2023-03-13T11:57:17;1.00;;;0.10;;
70558;SDS011;58108;48.094;11.838;2023-03-13T12:04:42;1.00;;;0.10;;
70558;SDS011;58108;48.094;11.838;2023-03-13T12:09:39;1.08;;;0.10;;
70558;SDS011;58108;48.094;11.838;2023-03-13T12:12:22;0.65;;;0.10;;
70558;SDS011;58108;48.094;11.838;2023-03-13T12:15:04;0.85;;;0.10;;
70558;SDS011;58108;48.094;11.838;2023-03-13T12:17:36;3.65;;;0.10;;
70558;SDS011;58108;48.094;11.838;2023-03-13T12:22:35;1.02;;;0.10;;
70558;SDS011;58108;48.094;11.838;2023-03-13T12:25:14;0.75;;;0.10;;
70558;SDS011;58108;48.094;11.838;2023-03-13T12:27:43;1.00;;;0.10;;
70558;SDS011;58108;48.094;11.838;2023-03-13T12:30:24;0.45;;;0.10;;
70558;SDS011;58108;48.094;11.838;2023-03-13T12:35:23;0.70;;;0.00;;
70558;SDS011;58108;48.094;11.838;2023-03-13T12:38:01;3.70;;;0.10;;
70558;SDS011;58108;48.094;11.838;2023-03-13T12:40:37;2.65;;;0.10;;
70558;SDS011;58108;48.094;11.838;2023-03-13T12:45:31;0.87;;;0.10;;
70558;SDS011;58108;48.094;11.838;2023-03-13T12:50:56;1.10;;;0.10;;
70558;SDS011;58108;48.094;11.838;2023-03-13T13:01:12;1.77;;;0.20;;
70558;SDS011;58108;48.094;11.838;2023-03-13T13:03:43;1.97;;;0.30;;
70558;SDS011;58108;48.094;11.838;2023-03-13T13:06:12;1.10;;;0.10;;
70558;SDS011;58108;48.094;11.838;2023-03-13T13:08:41;2.17;;;0.20;;
70558;SDS011;58108;48.094;11.838;2023-03-13T13:11:41;0.90;;;0.20;;
70558;SDS011;58108;48.094;11.838;2023-03-13T13:16:48;2.30;;;0.20;;
70558;SDS011;58108;48.094;11.838;2023-03-13T13:21:45;1.10;;;0.17;;
70558;SDS011;58108;48.094;11.838;2023-03-13T13:29:53;1.52;;;0.20;;
70558;SDS011;58108;48.094;11.838;2023-03-13T13:32:26;1.00;;;0.30;;
70558;SDS011;58108;48.094;11.838;2023-03-13T13:34:53;2.00;;;0.30;;
70558;SDS011;58108;48.094;11.838;2023-03-13T13:39:45;2.53;;;0.30;;
70558;SDS011;58108;48.094;11.838;2023-03-13T13:45:02;3.73;;;0.20;;
70558;SDS011;58108;48.094;11.838;2023-03-13T13:47:28;1.23;;;0.20;;
70558;SDS011;58108;48.094;11.838;2023-03-13T13:49:54;2.28;;;0.22;;
70558;SDS011;58108;48.094;11.838;2023-03-13T13:52:34;2.47;;;0.32;;
70558;SDS011;58108;48.094;11.838;2023-03-13T13:54:59;1.92;;;0.30;;
70558;SDS011;58108;48.094;11.838;2023-03-13T13:57:26;1.70;;;0.30;;
70558;SDS011;58108;48.094;11.838;2023-03-13T14:02:50;5.67;;;0.43;;
70558;SDS011;58108;48.094;11.838;2023-03-13T14:05:26;1.38;;;0.20;;
70558;SDS011;58108;48.094;11.838;2023-03-13T14:10:40;1.85;;;0.28;;
70558;SDS011;58108;48.094;11.838;2023-03-13T14:13:19;1.38;;;0.30;;
70558;SDS011;58108;48.094;11.838;2023-03-13T14:15:46;1.80;;;0.30;;
70558;SDS011;58108;48.094;11.838;2023-03-13T14:18:17;1.73;;;0.40;;
70558;SDS011;58108;48.094;11.838;2023-03-13T14:20:51;2.42;;;0.30;;
70558;SDS011;58108;48.094;11.838;2023-03-13T14:23:31;1.42;;;0.20;;
70558;SDS011;58108;48.094;11.838;2023-03-13T14:25:57;0.98;;;0.13;;
70558;SDS011;58108;48.094;11.838;2023-03-13T14:28:24;1.50;;;0.30;;
70558;SDS011;58108;48.094;11.838;2023-03-13T14:30:51;1.35;;;0.35;;
70558;SDS011;58108;48.094;11.838;2023-03-13T14:33:17;1.33;;;0.32;;
70558;SDS011;58108;48.094;11.838;2023-03-13T14:35:42;1.43;;;0.30;;
70558;SDS011;58108;48.094;11.838;2023-03-13T14:38:18;1.35;;;0.20;;
70558;SDS011;58108;48.094;11.838;2023-03-13T14:40:44;1.53;;;0.30;;
70558;SDS011;58108;48.094;11.838;2023-03-13T14:45:53;2.60;;;0.40;;
70558;SDS011;58108;48.094;11.838;2023-03-13T14:48:22;1.27;;;0.30;;
70558;SDS011;58108;48.094;11.838;2023-03-13T14:50:52;1.20;;;0.23;;
70558;SDS011;58108;48.094;11.838;2023-03-13T14:53:19;1.20;;;0.30;;
70558;SDS011;58108;48.094;11.838;2023-03-13T14:55:46;2.13;;;0.50;;
70558;SDS011;58108;48.094;11.838;2023-03-13T14:58:24;2.65;;;0.40;;
70558;SDS011;58108;48.094;11.838;2023-03-13T15:00:51;1.77;;;0.33;;
70558;SDS011;58108;48.094;11.838;2023-03-13T15:08:27;1.90;;;0.50;;
70558;SDS011;58108;48.094;11.838;2023-03-13T15:10:52;1.17;;;0.20;;
70558;SDS011;58108;48.094;11.838;2023-03-13T15:15:49;2.13;;;0.50;;
70558;SDS011;58108;48.094;11.838;2023-03-13T15:18:19;1.85;;;0.45;;
70558;SDS011;58108;48.094;11.838;2023-03-13T15:20:55;2.17;;;0.50;;
70558;SDS011;58108;48.094;11.838;2023-03-13T15:23:21;1.77;;;0.50;;
70558;SDS011;58108;48.094;11.838;2023-03-13T15:25:47;1.50;;;0.40;;
70558;SDS011;58108;48.094;11.838;2023-03-13T15:28:19;1.80;;;0.40;;
70558;SDS011;58108;48.094;11.838;2023-03-13T15:30:46;2.22;;;0.30;;
70558;SDS011;58108;48.094;11.838;2023-03-13T15:33:12;1.70;;;0.50;;
70558;SDS011;58108;48.094;11.838;2023-03-13T15:35:38;1.80;;;0.60;;
70558;SDS011;58108;48.094;11.838;2023-03-13T15:38:03;1.70;;;0.30;;
70558;SDS011;58108;48.094;11.838;2023-03-13T15:40:30;2.73;;;0.60;;
70558;SDS011;58108;48.094;11.838;2023-03-13T15:42:55;2.20;;;0.50;;
70558;SDS011;58108;48.094;11.838;2023-03-13T15:45:21;1.73;;;0.50;;
70558;SDS011;58108;48.094;11.838;2023-03-13T15:47:46;3.70;;;0.80;;
70558;SDS011;58108;48.094;11.838;2023-03-13T15:50:13;2.95;;;0.63;;
70558;SDS011;58108;48.094;11.838;2023-03-13T15:52:39;2.15;;;0.70;;
70558;SDS011;58108;48.094;11.838;2023-03-13T15:55:04;2.70;;;0.80;;
70558;SDS011;58108;48.094;11.838;2023-03-13T15:57:32;2.20;;;0.60;;
70558;SDS011;58108;48.094;11.838;2023-03-13T15:59:57;3.03;;;0.90;;
70558;SDS011;58108;48.094;11.838;2023-03-13T16:02:22;2.33;;;0.70;;
70558;SDS011;58108;48.094;11.838;2023-03-13T16:04:48;2.78;;;0.60;;
70558;SDS011;58108;48.094;11.838;2023-03-13T16:07:15;2.20;;;0.50;;
70558;SDS011;58108;48.094;11.838;2023-03-13T16:09:40;2.60;;;0.65;;
70558;SDS011;58108;48.094;11.838;2023-03-13T16:12:06;2.47;;;0.50;;
70558;SDS011;58108;48.094;11.838;2023-03-13T16:14:31;2.83;;;0.63;;
70558;SDS011;58108;48.094;11.838;2023-03-13T16:16:57;3.67;;;0.60;;
70558;SDS011;58108;48.094;11.838;2023-03-13T16:19:22;3.40;;;0.95;;